Time;durP1;ratioP1;P1;durP2;ratioP2;P2;SDS_P1;SDS_P2;PMS_P1;PMS_P2;Temp;Humidity;BMP_temperature;BMP_pressure;BME280_temperature;BME280_humidity;BME280_pressure;Samples;Min_cycle;Max_cycle;Signal;HPM_P1;HPM_P2
2021/07/11 00:01:47;;;;;;;8.90;8.02;;;;;;;;;;5080622;28;20421;-91
2021/07/11 00:04:15;;;;;;;10.57;9.35;;;;;;;;;;5081045;28;20479;-91
2021/07/11 00:06:42;;;;;;;10.40;9.40;;;;;;;;;;5081748;28;20398;-90
2021/07/11 00:09:09;;;;;;;13.80;9.20;;;;;;;;;;5081358;28;20404;-91
2021/07/11 00:11:36;;;;;;;11.20;9.40;;;;;;;;;;5081256;28;20469;-91
2021/07/11 00:14:03;;;;;;;9.63;8.73;;;;;;;;;;5080650;28;20868;-91
2021/07/11 00:16:30;;;;;;;9.63;8.73;;;;;;;;;;5081697;28;20540;-91
2021/07/11 00:18:58;;;;;;;10.38;8.65;;;;;;;;;;5075805;28;20403;-91
2021/07/11 00:21:27;;;;;;;12.67;9.17;;;;;;;;;;5081517;28;20628;-90
2021/07/11 00:23:54;;;;;;;10.68;8.02;;;;;;;;;;5081885;28;20396;-90
2021/07/11 00:26:20;;;;;;;9.43;8.00;;;;;;;;;;5081375;28;20429;-90
2021/07/11 00:28:47;;;;;;;9.03;7.87;;;;;;;;;;5080103;28;21107;-90
2021/07/11 00:31:14;;;;;;;8.20;7.33;;;;;;;;;;5080182;28;20773;-90
2021/07/11 00:33:41;;;;;;;8.32;7.20;;;;;;;;;;5080530;28;20427;-90
2021/07/11 00:36:08;;;;;;;8.00;7.15;;;;;;;;;;5079965;28;20404;-90
2021/07/11 00:38:36;;;;;;;7.67;6.87;;;;;;;;;;5080294;28;20409;-90
2021/07/11 00:41:03;;;;;;;8.55;6.70;;;;;;;;;;5079794;28;20898;-90
2021/07/11 00:43:30;;;;;;;7.18;6.43;;;;;;;;;;5080780;28;20458;-90
2021/07/11 00:45:57;;;;;;;6.57;5.93;;;;;;;;;;5078562;28;20388;-91
2021/07/11 00:48:24;;;;;;;7.60;5.80;;;;;;;;;;5080719;28;20416;-91
2021/07/11 00:50:51;;;;;;;6.10;5.53;;;;;;;;;;5080713;28;20471;-91
2021/07/11 00:53:18;;;;;;;8.18;5.60;;;;;;;;;;5078038;28;20472;-90
2021/07/11 00:55:46;;;;;;;6.72;5.80;;;;;;;;;;5079834;28;20402;-91
2021/07/11 00:58:14;;;;;;;7.65;6.20;;;;;;;;;;5079227;28;20406;-90
2021/07/11 01:00:48;;;;;;;6.75;6.13;;;;;;;;;;5079848;28;20764;-91
2021/07/11 01:03:25;;;;;;;7.57;5.97;;;;;;;;;;5079277;28;20437;-90
2021/07/11 01:05:52;;;;;;;8.27;5.63;;;;;;;;;;5079426;28;20953;-91
2021/07/11 01:08:30;;;;;;;5.90;5.35;;;;;;;;;;5079211;28;20398;-90
2021/07/11 01:11:03;;;;;;;5.75;5.20;;;;;;;;;;5079255;28;20396;-90
2021/07/11 01:13:31;;;;;;;5.80;5.10;;;;;;;;;;5079678;28;20422;-91
2021/07/11 01:16:02;;;;;;;5.67;5.03;;;;;;;;;;5079230;28;20400;-91
2021/07/11 01:18:30;;;;;;;6.55;5.10;;;;;;;;;;5074200;28;20957;-90
2021/07/11 01:21:01;;;;;;;5.70;5.10;;;;;;;;;;5079284;28;20819;-91
2021/07/11 01:23:37;;;;;;;6.00;4.60;;;;;;;;;;5079655;28;20508;-90
2021/07/11 01:26:07;;;;;;;6.07;4.95;;;;;;;;;;5074452;28;20430;-90
2021/07/11 01:28:35;;;;;;;6.53;4.50;;;;;;;;;;5078433;28;20449;-90
2021/07/11 01:31:02;;;;;;;5.18;4.65;;;;;;;;;;5078646;28;20466;-90
2021/07/11 01:33:31;;;;;;;6.47;4.47;;;;;;;;;;5074914;28;20423;-91
2021/07/11 01:36:00;;;;;;;5.38;4.82;;;;;;;;;;5078587;28;20408;-90
2021/07/11 01:38:27;;;;;;;7.13;4.70;;;;;;;;;;5078337;28;20416;-91
2021/07/11 01:40:54;;;;;;;5.32;4.57;;;;;;;;;;5079056;28;20408;-90
2021/07/11 01:43:24;;;;;;;6.17;4.60;;;;;;;;;;5078386;28;20943;-90
2021/07/11 01:45:51;;;;;;;4.85;4.28;;;;;;;;;;5075031;28;20418;-90
2021/07/11 01:48:19;;;;;;;5.38;4.30;;;;;;;;;;5076185;28;20402;-90
2021/07/11 01:50:50;;;;;;;6.15;4.18;;;;;;;;;;5077029;28;20452;-91
2021/07/11 01:53:17;;;;;;;6.32;4.57;;;;;;;;;;5075709;28;20457;-89
2021/07/11 01:55:44;;;;;;;5.32;4.32;;;;;;;;;;5077883;28;20459;-90
2021/07/11 01:58:11;;;;;;;5.63;4.47;;;;;;;;;;5077222;28;20441;-90
2021/07/11 02:00:40;;;;;;;6.28;4.28;;;;;;;;;;5077099;28;20396;-90
2021/07/11 02:03:16;;;;;;;5.55;4.68;;;;;;;;;;5057690;28;20901;-90
2021/07/11 02:05:43;;;;;;;7.03;5.13;;;;;;;;;;5055465;28;20502;-90
2021/07/11 02:08:10;;;;;;;9.00;4.75;;;;;;;;;;5056557;28;20410;-90
2021/07/11 02:10:37;;;;;;;5.25;4.75;;;;;;;;;;5056269;28;20459;-91
2021/07/11 02:13:09;;;;;;;6.75;4.80;;;;;;;;;;5056321;28;20419;-90
2021/07/11 02:15:42;;;;;;;5.50;5.00;;;;;;;;;;5056350;28;20869;-90
2021/07/11 02:18:11;;;;;;;4.95;4.45;;;;;;;;;;5056841;28;20461;-91
2021/07/11 02:20:38;;;;;;;6.40;4.60;;;;;;;;;;5055868;28;20406;-90
2021/07/11 02:23:06;;;;;;;5.20;4.70;;;;;;;;;;5056409;28;20403;-90
2021/07/11 02:25:33;;;;;;;6.03;4.87;;;;;;;;;;5057928;28;20398;-90
2021/07/11 02:28:00;;;;;;;6.40;4.40;;;;;;;;;;5063123;28;20406;-90
2021/07/11 02:30:39;;;;;;;4.85;4.43;;;;;;;;;;5055702;28;20880;-90
2021/07/11 02:33:12;;;;;;;4.47;4.05;;;;;;;;;;5057706;28;20453;-91
2021/07/11 02:35:41;;;;;;;6.15;4.30;;;;;;;;;;5057154;28;20442;-90
2021/07/11 02:38:09;;;;;;;4.70;4.23;;;;;;;;;;5049763;28;20462;-90
2021/07/11 02:40:36;;;;;;;4.53;4.13;;;;;;;;;;5046180;28;20887;-90
2021/07/11 02:43:06;;;;;;;4.45;4.05;;;;;;;;;;5045943;28;20454;-90
2021/07/11 02:45:34;;;;;;;7.67;4.67;;;;;;;;;;5046011;28;20413;-90
2021/07/11 02:48:02;;;;;;;6.00;4.07;;;;;;;;;;5045529;28;20407;-90
2021/07/11 02:50:32;;;;;;;4.63;3.63;;;;;;;;;;5045882;28;20544;-90
2021/07/11 02:52:59;;;;;;;4.93;4.15;;;;;;;;;;5045492;28;20485;-90
2021/07/11 02:55:28;;;;;;;5.47;4.30;;;;;;;;;;5045858;28;20473;-90
2021/07/11 02:58:00;;;;;;;4.32;3.90;;;;;;;;;;5046017;28;20839;-91
2021/07/11 03:00:28;;;;;;;4.50;3.70;;;;;;;;;;5045738;28;20403;-90
2021/07/11 03:02:57;;;;;;;5.00;3.75;;;;;;;;;;5045493;28;20872;-90
2021/07/11 03:05:25;;;;;;;4.07;3.60;;;;;;;;;;5045750;28;20407;-90
2021/07/11 03:07:53;;;;;;;3.97;3.65;;;;;;;;;;5045952;28;20411;-91
2021/07/11 03:10:20;;;;;;;5.13;3.80;;;;;;;;;;5041912;28;20408;-90
2021/07/11 03:12:50;;;;;;;4.07;3.38;;;;;;;;;;5045757;28;20486;-90
2021/07/11 03:15:18;;;;;;;3.70;3.40;;;;;;;;;;5042618;28;20772;-90
2021/07/11 03:17:45;;;;;;;4.60;3.40;;;;;;;;;;5049800;28;20411;-90
2021/07/11 03:20:14;;;;;;;4.15;3.75;;;;;;;;;;5049690;28;20403;-90
2021/07/11 03:22:42;;;;;;;4.03;3.63;;;;;;;;;;5050012;28;20408;-90
2021/07/11 03:25:13;;;;;;;6.32;4.85;;;;;;;;;;5049354;28;20403;-91
2021/07/11 03:27:41;;;;;;;5.50;5.00;;;;;;;;;;5049661;28;20534;-90
2021/07/11 03:30:10;;;;;;;6.70;5.50;;;;;;;;;;5048996;28;20399;-90
2021/07/11 03:32:41;;;;;;;5.95;5.22;;;;;;;;;;5049690;28;20487;-90
2021/07/11 03:35:11;;;;;;;5.97;5.30;;;;;;;;;;5049140;28;20392;-90
2021/07/11 03:37:41;;;;;;;5.20;4.70;;;;;;;;;;5049106;28;20407;-89
2021/07/11 03:40:11;;;;;;;5.68;4.20;;;;;;;;;;5049049;28;20439;-90
2021/07/11 03:42:40;;;;;;;4.90;4.30;;;;;;;;;;5049357;28;20803;-90
2021/07/11 03:45:09;;;;;;;4.47;4.00;;;;;;;;;;5048791;28;20884;-90
2021/07/11 03:47:41;;;;;;;4.70;3.78;;;;;;;;;;5049140;28;20396;-90
2021/07/11 03:50:09;;;;;;;4.38;3.70;;;;;;;;;;5048767;28;20814;-90
2021/07/11 03:52:49;;;;;;;4.63;4.20;;;;;;;;;;5049439;28;20408;-89
2021/07/11 03:55:19;;;;;;;5.10;4.00;;;;;;;;;;5048697;28;20811;-90
2021/07/11 03:57:48;;;;;;;4.70;4.15;;;;;;;;;;5049040;28;20414;-90
2021/07/11 04:00:17;;;;;;;6.03;4.45;;;;;;;;;;5048691;28;20438;-89
2021/07/11 04:02:48;;;;;;;5.25;4.75;;;;;;;;;;5048372;28;20465;-90
2021/07/11 04:05:17;;;;;;;7.93;4.97;;;;;;;;;;5042043;28;20415;-89
2021/07/11 04:07:45;;;;;;;8.98;4.90;;;;;;;;;;5048263;28;20818;-89
2021/07/11 04:10:13;;;;;;;8.88;5.20;;;;;;;;;;5057005;28;20407;-89
2021/07/11 04:12:42;;;;;;;7.15;5.35;;;;;;;;;;5050586;28;20402;-89
2021/07/11 04:15:09;;;;;;;7.30;4.72;;;;;;;;;;5049823;28;20957;-89
2021/07/11 04:17:38;;;;;;;6.85;4.78;;;;;;;;;;5050479;28;20411;-90
2021/07/11 04:20:06;;;;;;;7.82;5.25;;;;;;;;;;5049710;28;20400;-89
2021/07/11 04:22:33;;;;;;;5.60;5.10;;;;;;;;;;5049801;28;20914;-89
2021/07/11 04:25:02;;;;;;;5.60;5.10;;;;;;;;;;5049683;28;20767;-90
2021/07/11 04:27:30;;;;;;;6.80;5.33;;;;;;;;;;5048640;28;20901;-89
2021/07/11 04:29:59;;;;;;;6.60;5.00;;;;;;;;;;5049815;28;20470;-89
2021/07/11 04:32:26;;;;;;;5.70;5.10;;;;;;;;;;5049641;28;20751;-89
2021/07/11 04:34:53;;;;;;;5.70;5.10;;;;;;;;;;5048818;28;20720;-89
2021/07/11 04:37:20;;;;;;;7.25;4.75;;;;;;;;;;5054503;28;20970;-89
2021/07/11 04:39:47;;;;;;;5.35;4.85;;;;;;;;;;5069371;28;20692;-90
2021/07/11 04:42:14;;;;;;;5.63;5.10;;;;;;;;;;5069205;28;20448;-89
2021/07/11 04:44:44;;;;;;;6.32;4.70;;;;;;;;;;5069877;28;20411;-89
2021/07/11 04:47:12;;;;;;;5.07;4.60;;;;;;;;;;5068814;28;20405;-90
2021/07/11 04:49:39;;;;;;;5.13;4.40;;;;;;;;;;5069240;28;20402;-90
2021/07/11 04:52:07;;;;;;;5.68;4.78;;;;;;;;;;5068847;28;20881;-89
2021/07/11 04:54:34;;;;;;;5.20;4.65;;;;;;;;;;5068963;28;20417;-89
2021/07/11 04:57:01;;;;;;;5.13;4.65;;;;;;;;;;5068779;28;20405;-89
2021/07/11 04:59:28;;;;;;;4.80;4.40;;;;;;;;;;5068876;28;20870;-90
2021/07/11 05:01:55;;;;;;;6.18;4.68;;;;;;;;;;5068937;28;20493;-90
2021/07/11 05:04:23;;;;;;;5.33;4.30;;;;;;;;;;5068298;28;20394;-89
2021/07/11 05:06:50;;;;;;;4.60;4.00;;;;;;;;;;5065310;28;20471;-90
2021/07/11 05:09:17;;;;;;;4.70;4.30;;;;;;;;;;5068163;28;20479;-89
2021/07/11 05:11:44;;;;;;;6.43;4.13;;;;;;;;;;5068818;28;20402;-89
2021/07/11 05:14:10;;;;;;;4.60;4.10;;;;;;;;;;5067801;28;20428;-90
2021/07/11 05:16:37;;;;;;;4.47;4.00;;;;;;;;;;5068331;28;20951;-90
2021/07/11 05:19:04;;;;;;;4.70;4.20;;;;;;;;;;5068065;28;20421;-90
2021/07/11 05:21:33;;;;;;;4.40;4.00;;;;;;;;;;5067828;28;20393;-90
2021/07/11 05:24:00;;;;;;;4.20;3.80;;;;;;;;;;5068128;28;20402;-89
2021/07/11 05:26:27;;;;;;;3.55;3.25;;;;;;;;;;5067816;28;20447;-89
2021/07/11 05:28:54;;;;;;;3.95;3.55;;;;;;;;;;5068205;28;20397;-89
2021/07/11 05:31:21;;;;;;;4.93;3.78;;;;;;;;;;5067471;28;20406;-90
2021/07/11 05:33:48;;;;;;;4.25;3.88;;;;;;;;;;5063902;28;20617;-89
2021/07/11 05:36:15;;;;;;;4.10;3.70;;;;;;;;;;5066989;28;20402;-89
2021/07/11 05:41:14;;;;;;;5.07;3.73;;;;;;;;;;5066110;28;20475;-92
2021/07/11 05:43:41;;;;;;;4.10;3.60;;;;;;;;;;5072454;28;20406;-90
2021/07/11 05:46:08;;;;;;;4.75;3.60;;;;;;;;;;5067511;28;20414;-91
2021/07/11 05:48:35;;;;;;;3.75;3.38;;;;;;;;;;5063205;28;20410;-91
2021/07/11 05:51:01;;;;;;;4.75;3.80;;;;;;;;;;5067126;28;20413;-92
2021/07/11 05:53:28;;;;;;;4.75;3.35;;;;;;;;;;5068730;28;20770;-91
2021/07/11 05:55:55;;;;;;;4.40;3.70;;;;;;;;;;5069332;28;20413;-92
2021/07/11 05:58:24;;;;;;;4.25;3.85;;;;;;;;;;5072944;28;20406;-91
2021/07/11 06:00:51;;;;;;;3.88;3.30;;;;;;;;;;5065252;28;20440;-93
2021/07/11 06:03:18;;;;;;;3.92;3.20;;;;;;;;;;5068161;28;20424;-92
2021/07/11 06:05:45;;;;;;;3.73;2.90;;;;;;;;;;5068682;28;20822;-91
2021/07/11 06:08:12;;;;;;;3.58;2.67;;;;;;;;;;5064522;28;20423;-92
2021/07/11 06:10:39;;;;;;;3.95;2.85;;;;;;;;;;5068985;28;20409;-91
2021/07/11 06:13:06;;;;;;;3.45;2.90;;;;;;;;;;5068991;28;20819;-89
2021/07/11 06:15:35;;;;;;;4.00;2.85;;;;;;;;;;5071025;28;20421;-92
2021/07/11 06:18:02;;;;;;;3.08;2.53;;;;;;;;;;5065947;28;20410;-91
2021/07/11 06:20:29;;;;;;;3.30;2.30;;;;;;;;;;5067999;28;20421;-92
2021/07/11 06:22:56;;;;;;;2.40;2.20;;;;;;;;;;5064437;28;20408;-92
2021/07/11 06:25:23;;;;;;;3.15;2.22;;;;;;;;;;5068415;28;20414;-90
2021/07/11 06:27:49;;;;;;;2.10;1.70;;;;;;;;;;5065022;28;20402;-91
2021/07/11 06:30:18;;;;;;;2.78;2.00;;;;;;;;;;5067628;28;20399;-90
2021/07/11 06:32:49;;;;;;;2.05;1.85;;;;;;;;;;5071361;28;20758;-91
2021/07/11 06:35:19;;;;;;;1.98;1.50;;;;;;;;;;5075749;28;20421;-90
2021/07/11 06:37:46;;;;;;;2.30;1.80;;;;;;;;;;5068138;28;20402;-90
2021/07/11 06:40:14;;;;;;;1.92;1.65;;;;;;;;;;5056814;28;20477;-90
2021/07/11 06:42:42;;;;;;;1.70;1.60;;;;;;;;;;5047669;28;20415;-92
2021/07/11 06:45:11;;;;;;;1.63;1.52;;;;;;;;;;5047033;28;20408;-93
2021/07/11 06:47:38;;;;;;;1.65;1.50;;;;;;;;;;5047547;28;20408;-92
2021/07/11 06:50:09;;;;;;;1.60;1.48;;;;;;;;;;5046919;28;20483;-91
2021/07/11 06:52:36;;;;;;;1.48;1.38;;;;;;;;;;5047412;28;20407;-89
2021/07/11 06:55:04;;;;;;;1.50;1.40;;;;;;;;;;5047206;28;20469;-90
2021/07/11 06:57:32;;;;;;;1.63;1.30;;;;;;;;;;5047709;28;20419;-91
2021/07/11 06:59:59;;;;;;;1.45;1.35;;;;;;;;;;5047253;28;20411;-92
2021/07/11 07:02:26;;;;;;;3.17;1.52;;;;;;;;;;5047427;28;20399;-89
2021/07/11 07:04:54;;;;;;;1.83;1.30;;;;;;;;;;5047627;28;20416;-89
2021/07/11 07:07:22;;;;;;;1.63;1.50;;;;;;;;;;5047523;28;20435;-91
2021/07/11 07:09:49;;;;;;;2.45;1.40;;;;;;;;;;5043428;28;20890;-92
2021/07/11 07:12:16;;;;;;;1.73;1.30;;;;;;;;;;5046863;28;20415;-92
2021/07/11 07:14:43;;;;;;;1.50;1.40;;;;;;;;;;5047158;28;20440;-91
2021/07/11 07:17:10;;;;;;;1.60;1.50;;;;;;;;;;5046972;28;20411;-90
2021/07/11 07:19:37;;;;;;;2.50;1.65;;;;;;;;;;5047720;28;20416;-91
2021/07/11 07:22:04;;;;;;;1.60;1.50;;;;;;;;;;5047024;28;20407;-91
2021/07/11 07:24:33;;;;;;;1.80;1.00;;;;;;;;;;5047251;28;20897;-91
2021/07/11 07:27:00;;;;;;;2.20;1.30;;;;;;;;;;5046988;28;20415;-92
2021/07/11 07:29:26;;;;;;;1.33;1.23;;;;;;;;;;5046551;28;20414;-89
2021/07/11 07:31:53;;;;;;;1.88;1.20;;;;;;;;;;5047092;28;20906;-90
2021/07/11 07:34:20;;;;;;;1.70;1.20;;;;;;;;;;5046764;28;20799;-90
2021/07/11 07:36:47;;;;;;;1.13;1.02;;;;;;;;;;5046725;28;20853;-91
2021/07/11 07:39:14;;;;;;;1.30;1.20;;;;;;;;;;5048216;28;20423;-91
2021/07/11 07:41:43;;;;;;;1.27;1.10;;;;;;;;;;5062715;28;20415;-90
2021/07/11 07:44:09;;;;;;;1.27;1.08;;;;;;;;;;5066609;28;20417;-91
2021/07/11 07:46:36;;;;;;;1.23;1.00;;;;;;;;;;5066287;28;20492;-90
2021/07/11 07:49:03;;;;;;;1.30;1.20;;;;;;;;;;5065876;28;20409;-91
2021/07/11 07:51:30;;;;;;;2.05;1.30;;;;;;;;;;5066057;28;20406;-90
2021/07/11 07:53:57;;;;;;;2.30;1.20;;;;;;;;;;5063404;28;20451;-91
2021/07/11 07:56:24;;;;;;;1.30;1.00;;;;;;;;;;5061987;28;20425;-90
2021/07/11 07:58:52;;;;;;;1.40;1.10;;;;;;;;;;5066607;28;20414;-90
2021/07/11 08:01:19;;;;;;;2.00;1.13;;;;;;;;;;5058385;28;20471;-91
2021/07/11 08:03:46;;;;;;;1.60;1.10;;;;;;;;;;5069187;28;20409;-91
2021/07/11 08:06:13;;;;;;;1.33;1.02;;;;;;;;;;5068922;28;20498;-91
2021/07/11 08:08:40;;;;;;;2.20;1.00;;;;;;;;;;5069773;28;20453;-91
2021/07/11 08:11:07;;;;;;;1.35;1.25;;;;;;;;;;5069316;28;20413;-92
2021/07/11 08:13:35;;;;;;;1.90;1.25;;;;;;;;;;5069289;28;20406;-89
2021/07/11 08:16:04;;;;;;;1.83;1.20;;;;;;;;;;5064736;28;20421;-91
2021/07/11 08:18:31;;;;;;;1.65;1.10;;;;;;;;;;5068895;28;20406;-91
2021/07/11 08:20:58;;;;;;;1.10;1.00;;;;;;;;;;5068917;28;20947;-91
2021/07/11 08:23:25;;;;;;;1.63;0.87;;;;;;;;;;5069240;28;20410;-91
2021/07/11 08:25:52;;;;;;;1.90;0.90;;;;;;;;;;5069369;28;20405;-89
2021/07/11 08:28:19;;;;;;;1.30;0.90;;;;;;;;;;5064702;28;20414;-92
2021/07/11 08:30:46;;;;;;;1.80;1.30;;;;;;;;;;5064562;28;20406;-91
2021/07/11 08:33:14;;;;;;;1.20;1.10;;;;;;;;;;5069017;28;20409;-91
2021/07/11 08:35:41;;;;;;;1.10;0.95;;;;;;;;;;5068778;28;20424;-92
2021/07/11 08:38:08;;;;;;;1.13;1.00;;;;;;;;;;5064504;28;20414;-90
2021/07/11 08:40:36;;;;;;;0.93;0.93;;;;;;;;;;5077357;28;20536;-89
2021/07/11 08:43:06;;;;;;;1.00;0.90;;;;;;;;;;5085002;28;20404;-90
2021/07/11 08:45:33;;;;;;;1.10;1.00;;;;;;;;;;5088067;28;20908;-90
2021/07/11 08:48:00;;;;;;;1.30;0.90;;;;;;;;;;5088064;28;20412;-91
2021/07/11 08:50:32;;;;;;;1.02;0.70;;;;;;;;;;5084467;28;20410;-91
2021/07/11 08:52:59;;;;;;;1.50;0.90;;;;;;;;;;5084394;28;20823;-91
2021/07/11 08:55:27;;;;;;;1.00;0.90;;;;;;;;;;5087893;28;20423;-92
2021/07/11 08:57:56;;;;;;;0.88;0.88;;;;;;;;;;5084514;28;20818;-91
2021/07/11 09:00:25;;;;;;;1.50;0.85;;;;;;;;;;5073779;28;20421;-90
2021/07/11 09:02:52;;;;;;;0.77;0.77;;;;;;;;;;5084973;28;20400;-90
2021/07/11 09:05:29;;;;;;;0.95;0.85;;;;;;;;;;5084042;28;20411;-90
2021/07/11 09:08:01;;;;;;;1.00;0.80;;;;;;;;;;5084952;28;20408;-91
2021/07/11 09:10:33;;;;;;;1.20;1.10;;;;;;;;;;5085086;28;20462;-90
2021/07/11 09:13:00;;;;;;;1.63;1.20;;;;;;;;;;5084537;28;20412;-90
2021/07/11 09:15:32;;;;;;;2.95;1.60;;;;;;;;;;5084410;28;20752;-90
2021/07/11 09:18:00;;;;;;;2.65;1.50;;;;;;;;;;5084081;28;20734;-92
2021/07/11 09:20:29;;;;;;;2.42;1.48;;;;;;;;;;5087605;28;20412;-91
2021/07/11 09:23:03;;;;;;;2.50;1.20;;;;;;;;;;5084102;28;20418;-92
2021/07/11 09:25:30;;;;;;;1.92;1.55;;;;;;;;;;5086893;28;20401;-92
2021/07/11 09:27:57;;;;;;;1.75;1.58;;;;;;;;;;5083674;28;21051;-90
2021/07/11 09:30:24;;;;;;;1.95;1.67;;;;;;;;;;5087767;28;20806;-90
2021/07/11 09:32:55;;;;;;;2.03;1.60;;;;;;;;;;5076635;28;20457;-92
2021/07/11 09:35:23;;;;;;;2.10;1.40;;;;;;;;;;5086966;28;20411;-92
2021/07/11 09:37:54;;;;;;;1.63;1.53;;;;;;;;;;5087429;28;20412;-90
2021/07/11 09:40:23;;;;;;;1.50;1.40;;;;;;;;;;5086902;28;20415;-91
2021/07/11 09:42:52;;;;;;;2.23;1.53;;;;;;;;;;5087122;28;20468;-92
2021/07/11 09:45:21;;;;;;;1.60;1.50;;;;;;;;;;5082887;28;20411;-91
2021/07/11 09:47:50;;;;;;;2.30;1.88;;;;;;;;;;5086879;28;20763;-90
2021/07/11 09:50:22;;;;;;;2.50;1.70;;;;;;;;;;5085956;28;20443;-92
2021/07/11 09:52:54;;;;;;;1.83;1.60;;;;;;;;;;5082463;28;20416;-92
2021/07/11 09:55:25;;;;;;;1.70;1.60;;;;;;;;;;5086913;28;20470;-90
2021/07/11 09:57:54;;;;;;;2.10;1.90;;;;;;;;;;5076173;28;20415;-91
2021/07/11 10:00:24;;;;;;;1.85;1.75;;;;;;;;;;5083374;28;20413;-90
2021/07/11 10:02:54;;;;;;;2.80;1.80;;;;;;;;;;5075444;28;20745;-89
2021/07/11 10:05:22;;;;;;;2.25;2.05;;;;;;;;;;5085586;28;20403;-91
2021/07/11 10:07:49;;;;;;;2.95;2.03;;;;;;;;;;5081750;28;20431;-90
2021/07/11 10:10:17;;;;;;;3.70;1.80;;;;;;;;;;5082112;28;20893;-93
2021/07/11 10:12:46;;;;;;;1.90;1.80;;;;;;;;;;5082310;28;20410;-92
2021/07/11 10:15:16;;;;;;;1.95;1.70;;;;;;;;;;5085815;28;20421;-91
2021/07/11 10:17:46;;;;;;;2.30;2.10;;;;;;;;;;5085456;28;20411;-92
2021/07/11 10:20:15;;;;;;;3.25;2.55;;;;;;;;;;5082466;28;21731;-92
2021/07/11 22:31:49;;;;;;;7.27;5.60;;;;;;;;;;6099869;22;20376;-86
2021/07/11 22:34:16;;;;;;;6.85;5.78;;;;;;;;;;6299825;22;20685;-88
2021/07/11 22:36:43;;;;;;;6.28;5.30;;;;;;;;;;6298845;22;20384;-89
2021/07/11 22:39:10;;;;;;;6.15;5.50;;;;;;;;;;6300018;22;20418;-88
2021/07/11 22:41:36;;;;;;;6.28;5.63;;;;;;;;;;6299068;22;20360;-90
2021/07/11 22:44:04;;;;;;;7.38;6.05;;;;;;;;;;6299457;22;20824;-87
2021/07/11 22:46:32;;;;;;;6.45;5.72;;;;;;;;;;6299394;22;20775;-89
2021/07/11 22:49:01;;;;;;;6.82;6.03;;;;;;;;;;6299442;22;20724;-89
2021/07/11 22:51:27;;;;;;;6.65;6.05;;;;;;;;;;6299499;22;20357;-87
2021/07/11 22:53:55;;;;;;;6.88;6.15;;;;;;;;;;6298871;22;20361;-89
2021/07/11 22:56:22;;;;;;;6.47;5.70;;;;;;;;;;6300380;22;20459;-87
2021/07/11 22:58:49;;;;;;;6.15;5.65;;;;;;;;;;6299715;22;20361;-87
2021/07/11 23:01:16;;;;;;;7.85;5.70;;;;;;;;;;6299862;22;20365;-88
2021/07/11 23:03:43;;;;;;;6.15;5.22;;;;;;;;;;6299306;22;20352;-89
2021/07/11 23:06:11;;;;;;;6.78;5.15;;;;;;;;;;6299447;22;20353;-88
2021/07/11 23:08:38;;;;;;;5.82;5.25;;;;;;;;;;6298959;22;20678;-87
2021/07/11 23:11:04;;;;;;;5.95;4.85;;;;;;;;;;6300022;22;20349;-89
2021/07/11 23:13:31;;;;;;;6.18;4.75;;;;;;;;;;6299508;22;20406;-88
2021/07/11 23:15:58;;;;;;;5.10;4.60;;;;;;;;;;6299158;22;20909;-90
2021/07/11 23:18:25;;;;;;;5.10;4.60;;;;;;;;;;6299455;22;20360;-87
2021/07/11 23:20:52;;;;;;;6.30;4.47;;;;;;;;;;6299379;22;20431;-90
2021/07/11 23:23:20;;;;;;;8.00;4.70;;;;;;;;;;6299318;22;20826;-89
2021/07/11 23:25:47;;;;;;;5.63;4.87;;;;;;;;;;6298838;22;20376;-88
2021/07/11 23:28:14;;;;;;;5.40;4.90;;;;;;;;;;6299576;22;20646;-89
2021/07/11 23:30:40;;;;;;;6.28;5.07;;;;;;;;;;6298919;22;20895;-87
2021/07/11 23:33:07;;;;;;;6.20;4.60;;;;;;;;;;6299380;22;20849;-89
2021/07/11 23:35:34;;;;;;;5.20;4.70;;;;;;;;;;6300755;22;20353;-89
2021/07/11 23:38:02;;;;;;;5.43;4.53;;;;;;;;;;6301054;22;20380;-88
2021/07/11 23:40:31;;;;;;;5.18;4.47;;;;;;;;;;6301407;22;20361;-88
2021/07/11 23:42:59;;;;;;;5.00;4.55;;;;;;;;;;6301000;22;20357;-88
2021/07/11 23:45:27;;;;;;;5.88;4.43;;;;;;;;;;6301204;22;20357;-87
2021/07/11 23:47:56;;;;;;;5.00;4.13;;;;;;;;;;6300407;22;20732;-88
2021/07/11 23:50:25;;;;;;;5.30;4.60;;;;;;;;;;6300409;22;20357;-87
2021/07/11 23:52:52;;;;;;;6.05;4.53;;;;;;;;;;6299976;22;20837;-89
2021/07/11 23:55:20;;;;;;;5.10;4.47;;;;;;;;;;6300620;22;20490;-89
2021/07/11 23:57:49;;;;;;;4.72;4.22;;;;;;;;;;6300101;22;20388;-88
